Time;durP1;ratioP1;P1;durP2;ratioP2;P2;SDS_P1;SDS_P2;PMS_P1;PMS_P2;Temp;Humidity;BMP_temperature;BMP_pressure;BME280_temperature;BME280_humidity;BME280_pressure;Samples;Min_cycle;Max_cycle;Signal;HPM_P1;HPM_P2
2022/03/05 00:02:02;;;;;;;53.65;21.80;;;-0.60;99.90;;;-144.05;100.00;68007.91;5015788;28;20025;-79
2022/03/05 00:06:29;;;;;;;56.45;23.35;;;-0.60;99.90;;;-144.05;100.00;68007.91;5015567;28;20486;-76
2022/03/05 00:10:59;;;;;;;51.67;20.70;;;-0.60;99.90;;;-144.05;100.00;68007.91;5015232;28;20048;-76
2022/03/05 00:15:28;;;;;;;49.47;20.02;;;-0.60;99.90;;;-144.05;100.00;68007.91;5014593;28;20034;-77
2022/03/05 00:20:05;;;;;;;49.85;19.65;;;-0.60;99.90;;;-144.05;100.00;68007.91;5015179;28;20061;-79
2022/03/05 00:24:32;;;;;;;50.13;19.52;;;-0.60;99.90;;;-144.05;100.00;68007.91;5014802;28;20030;-77
2022/03/05 00:29:07;;;;;;;45.88;18.35;;;-0.70;99.90;;;-144.05;100.00;68007.91;5015727;28;20030;-78
2022/03/05 00:33:35;;;;;;;47.42;19.02;;;-0.80;99.90;;;-144.05;100.00;68007.91;5015321;28;20052;-77
2022/03/05 00:38:02;;;;;;;49.47;20.52;;;-0.70;99.90;;;-144.05;100.00;68007.91;5015443;28;20022;-77
2022/03/05 00:42:32;;;;;;;51.92;20.15;;;-0.90;99.90;;;-144.05;100.00;68007.91;5014476;28;20029;-77
2022/03/05 00:47:03;;;;;;;50.10;20.20;;;-1.00;99.90;;;-144.05;100.00;68007.91;4997781;28;20109;-79
2022/03/05 00:51:34;;;;;;;48.08;20.17;;;-1.20;99.90;;;-144.05;100.00;68007.91;4995497;28;20141;-77
2022/03/05 00:56:07;;;;;;;44.47;19.70;;;-1.50;99.90;;;-144.05;100.00;68007.91;4994477;28;20451;-77
2022/03/05 01:00:37;;;;;;;52.00;20.30;;;-1.70;99.90;;;-144.05;100.00;68007.91;4995737;28;20030;-78
2022/03/05 01:05:10;;;;;;;58.92;20.35;;;-1.80;99.90;;;-144.05;100.00;68007.91;4995905;28;20038;-77
2022/03/05 01:09:40;;;;;;;51.53;20.92;;;-1.80;99.90;;;-144.05;100.00;68007.91;5000544;28;20447;-78
2022/03/05 01:14:07;;;;;;;57.38;21.95;;;-1.60;99.90;;;-144.05;100.00;68007.91;5001305;28;20493;-78
2022/03/05 01:18:39;;;;;;;52.95;20.88;;;-1.60;99.90;;;-144.05;100.00;68007.91;4999556;28;20109;-79
2022/03/05 01:23:09;;;;;;;58.90;22.58;;;-1.60;99.90;;;-144.05;100.00;68007.91;4999387;28;20074;-78
2022/03/05 01:27:45;;;;;;;53.05;19.63;;;-1.60;99.90;;;-144.05;100.00;68007.91;4999416;28;20061;-76
2022/03/05 01:32:17;;;;;;;52.78;20.75;;;-1.70;99.90;;;-144.05;100.00;68007.91;4999340;28;20114;-79
2022/03/05 01:36:45;;;;;;;55.70;20.08;;;-1.80;99.90;;;-144.05;100.00;68007.91;4998713;28;20085;-76
2022/03/05 01:41:13;;;;;;;56.92;20.83;;;-1.70;99.90;;;-144.05;100.00;68007.91;4998134;28;20157;-78
2022/03/05 01:45:41;;;;;;;52.88;20.90;;;-1.60;99.90;;;-144.05;100.00;68007.91;5004872;28;20469;-79
2022/03/05 01:50:12;;;;;;;50.55;20.30;;;-1.50;99.90;;;-144.05;100.00;68007.91;5018878;28;20087;-79
2022/03/05 01:54:40;;;;;;;58.03;20.13;;;-1.40;99.90;;;-144.05;100.00;68007.91;5018166;28;20430;-77
2022/03/05 01:59:13;;;;;;;52.88;17.50;;;-1.30;99.90;;;-144.05;100.00;68007.91;5018733;28;20029;-77
2022/03/05 02:03:41;;;;;;;49.75;19.65;;;-1.10;99.90;;;-144.05;100.00;68007.91;5018774;28;20026;-77
2022/03/05 02:08:11;;;;;;;47.70;17.85;;;-1.10;99.90;;;-144.05;100.00;68007.91;5019405;28;20022;-78
2022/03/05 02:12:41;;;;;;;;;;;-1.10;99.90;;;-144.05;100.00;68007.91;5018689;28;20226;-78
2022/03/05 02:17:11;;;;;;;43.78;16.90;;;-1.20;99.90;;;-144.05;100.00;68007.91;5018094;28;20234;-77
2022/03/05 02:21:41;;;;;;;48.83;18.58;;;-1.30;99.90;;;-144.05;100.00;68007.91;5017359;28;20473;-79
2022/03/05 02:26:15;;;;;;;43.80;18.55;;;-1.60;99.90;;;-144.05;100.00;68007.91;5017820;28;20048;-80
2022/03/05 02:30:42;;;;;;;43.85;18.05;;;-1.90;99.90;;;-144.05;100.00;68007.91;5017217;28;20048;-76
2022/03/05 02:35:09;;;;;;;56.55;19.45;;;-2.00;99.90;;;-144.05;100.00;68007.91;5017970;28;20107;-78
2022/03/05 02:39:37;;;;;;;47.70;18.38;;;-1.90;99.90;;;-144.05;100.00;68007.91;5017117;28;20025;-77
2022/03/05 02:44:08;;;;;;;47.53;17.13;;;-2.00;99.90;;;-144.05;100.00;68007.91;5018320;28;20421;-79
2022/03/05 02:48:35;;;;;;;53.20;19.55;;;-2.00;99.90;;;-144.05;100.00;68007.91;5009070;28;20049;-76
2022/03/05 02:53:07;;;;;;;47.92;18.55;;;-2.20;99.90;;;-144.05;100.00;68007.91;5003429;28;20486;-80
2022/03/05 02:57:41;;;;;;;53.00;19.73;;;-1.90;99.90;;;-144.05;100.00;68007.91;4996854;28;20038;-79
2022/03/05 03:02:09;;;;;;;56.70;20.67;;;-1.80;99.90;;;-144.05;100.00;68007.91;4997146;28;20042;-80
2022/03/05 03:06:50;;;;;;;62.10;19.77;;;-1.60;99.90;;;-144.05;100.00;68007.91;4999018;28;20419;-78
2022/03/05 03:11:20;;;;;;;62.45;19.30;;;-1.50;99.90;;;-144.05;100.00;68007.91;4998023;28;20395;-80
2022/03/05 03:15:47;;;;;;;51.03;18.95;;;-1.40;99.90;;;-144.05;100.00;68007.91;4998165;28;20048;-76
2022/03/05 03:20:21;;;;;;;46.08;17.73;;;-1.40;99.90;;;-144.05;100.00;68007.91;4997498;28;20030;-78
2022/03/05 03:24:49;;;;;;;51.03;18.92;;;-1.40;99.90;;;-144.05;100.00;68007.91;4998358;28;20153;-78
2022/03/05 03:29:19;;;;;;;52.17;18.88;;;-1.50;99.90;;;-144.05;100.00;68007.91;4992826;28;20035;-77
2022/03/05 03:33:53;;;;;;;53.97;18.20;;;-1.40;99.90;;;-144.05;100.00;68007.91;4997353;28;20050;-78
2022/03/05 03:38:20;;;;;;;45.90;18.75;;;-1.40;99.90;;;-144.05;100.00;68007.91;4996520;28;20026;-77
2022/03/05 03:42:47;;;;;;;55.80;18.48;;;-1.30;99.90;;;-144.05;100.00;68007.91;4997554;28;20053;-78
2022/03/05 03:47:20;;;;;;;48.08;17.80;;;-1.30;99.90;;;-144.05;100.00;68007.91;5015632;28;20118;-79
2022/03/05 03:51:48;;;;;;;46.75;17.15;;;-1.40;99.90;;;-144.05;100.00;68007.91;5016663;28;20057;-77
2022/03/05 03:56:17;;;;;;;52.17;18.50;;;-1.30;99.90;;;-144.05;100.00;68007.91;5016607;28;20485;-78
2022/03/05 04:00:50;;;;;;;45.03;16.27;;;-1.40;99.90;;;-144.05;100.00;68007.91;5016278;28;20069;-77
2022/03/05 04:05:18;;;;;;;39.92;14.93;;;-1.60;99.90;;;-144.05;100.00;68007.91;5015143;28;20443;-78
2022/03/05 04:09:48;;;;;;;43.65;18.02;;;-2.10;99.90;;;-144.05;100.00;68007.91;5016795;28;20517;-78
2022/03/05 04:14:15;;;;;;;42.50;16.27;;;-2.40;99.90;;;-144.05;100.00;68007.91;5015062;28;20034;-76
2022/03/05 04:18:42;;;;;;;39.30;16.58;;;-2.60;99.90;;;-144.05;100.00;68007.91;5015082;28;20423;-76
2022/03/05 04:23:10;;;;;;;48.97;17.98;;;-2.70;99.90;;;-144.05;100.00;68007.91;5017279;28;20032;-77
2022/03/05 04:27:41;;;;;;;60.95;20.10;;;-2.70;99.90;;;-144.05;100.00;68007.91;5016968;28;20038;-78
2022/03/05 04:32:19;;;;;;;50.65;17.88;;;-2.40;99.90;;;-144.05;100.00;68007.91;5016779;28;20041;-80
2022/03/05 04:36:49;;;;;;;54.25;18.50;;;-2.30;99.90;;;-144.05;100.00;68007.91;5016172;28;20037;-78
2022/03/05 04:41:19;;;;;;;;;;;-2.20;99.90;;;-144.05;100.00;68007.91;5017813;28;20046;-78
2022/03/05 04:45:47;;;;;;;52.53;17.45;;;-2.20;99.90;;;-144.05;100.00;68007.91;5010490;28;19913;-78
2022/03/05 04:52:45;;;;;;;50.17;18.58;;;-2.20;99.90;;;;;;5073061;28;20394;-78
2022/03/05 04:55:11;;;;;;;50.55;19.35;;;-2.10;99.90;;;;;;5071638;28;20106;-79
2022/03/05 04:57:36;;;;;;;49.25;19.17;;;-2.10;99.90;;;;;;5073650;28;20095;-80
2022/03/05 05:00:14;;;;;;;48.25;18.58;;;-2.00;99.90;;;;;;5073619;28;20060;-77
2022/03/05 05:02:40;;;;;;;56.08;21.13;;;-2.10;99.90;;;;;;5073671;28;20091;-77
2022/03/05 05:05:05;;;;;;;60.15;19.48;;;-2.00;99.90;;;;;;5073220;28;20029;-77
2022/03/05 05:07:34;;;;;;;54.22;20.88;;;-2.00;99.90;;;;;;5073489;28;20028;-77
2022/03/05 05:10:00;;;;;;;50.55;18.90;;;-2.00;99.90;;;;;;5073419;28;20027;-77
2022/03/05 05:12:25;;;;;;;52.67;20.98;;;-2.00;99.90;;;;;;5074506;28;20036;-79
2022/03/05 05:14:54;;;;;;;51.38;18.98;;;-1.90;99.90;;;;;;5073791;28;20032;-76
2022/03/05 05:17:19;;;;;;;56.25;19.33;;;-1.90;99.90;;;;;;5073317;28;20114;-79
2022/03/05 05:19:45;;;;;;;43.45;19.83;;;-1.90;99.90;;;;;;5073136;28;20028;-78
2022/03/05 05:22:13;;;;;;;47.88;18.08;;;-1.90;99.90;;;;;;5072857;28;20111;-78
2022/03/05 05:24:42;;;;;;;54.88;19.45;;;-1.90;99.90;;;;;;5073132;28;20404;-77
2022/03/05 05:27:07;;;;;;;59.78;22.65;;;-1.90;99.90;;;;;;5073004;28;20029;-78
2022/03/05 05:29:33;;;;;;;54.13;20.27;;;-2.00;99.90;;;;;;5072685;28;20059;-77
2022/03/05 05:32:05;;;;;;;52.80;19.30;;;-2.00;99.90;;;;;;5072914;28;20029;-76
2022/03/05 05:34:31;;;;;;;50.05;20.10;;;-2.00;99.90;;;;;;5071489;28;20024;-79
2022/03/05 05:36:59;;;;;;;52.20;20.23;;;-2.00;99.90;;;;;;5072158;28;20044;-76
2022/03/05 05:39:25;;;;;;;56.95;20.35;;;-2.00;99.90;;;;;;5072258;28;20400;-77
2022/03/05 05:41:51;;;;;;;60.63;21.13;;;-2.00;99.90;;;;;;5071951;28;20029;-80
2022/03/05 05:44:22;;;;;;;55.53;19.70;;;-2.00;99.90;;;;;;5084315;28;20036;-80
2022/03/05 05:46:47;;;;;;;63.95;22.50;;;-2.10;99.90;;;;;;5091513;28;20052;-78
2022/03/05 05:49:13;;;;;;;56.95;20.33;;;-2.10;99.90;;;;;;5089787;28;20024;-80
2022/03/05 05:51:39;;;;;;;50.50;19.17;;;-2.00;99.90;;;;;;5090589;28;20118;-77
2022/03/05 05:54:04;;;;;;;58.97;19.73;;;-2.00;99.90;;;;;;5090699;28;20058;-78
2022/03/05 05:56:30;;;;;;;46.83;19.67;;;-2.00;99.90;;;;;;5090471;28;20020;-78
2022/03/05 05:58:56;;;;;;;61.08;21.02;;;-2.00;99.90;;;;;;5092196;28;20032;-77
2022/03/05 06:01:25;;;;;;;54.05;19.30;;;-2.00;99.90;;;;;;5092400;28;20051;-78
2022/03/05 06:03:52;;;;;;;49.97;19.52;;;-2.20;99.90;;;;;;5079483;28;20028;-79
2022/03/05 06:06:20;;;;;;;43.03;16.20;;;-2.30;99.90;;;;;;5079712;28;20029;-80
2022/03/05 06:08:46;;;;;;;46.78;17.73;;;-2.50;99.90;;;;;;5077296;28;20032;-80
2022/03/05 06:11:11;;;;;;;49.50;17.38;;;-2.70;99.90;;;;;;5079635;28;20112;-77
2022/03/05 06:13:37;;;;;;;51.90;19.63;;;-2.80;99.90;;;;;;5078499;28;20028;-80
2022/03/05 06:16:06;;;;;;;49.38;17.60;;;-2.90;99.90;;;;;;5077610;28;20480;-79
2022/03/05 06:18:32;;;;;;;52.05;19.20;;;-3.10;99.90;;;;;;5078816;28;20086;-79
2022/03/05 06:21:00;;;;;;;51.38;17.50;;;-3.20;99.90;;;;;;5079224;28;20025;-79
2022/03/05 06:23:26;;;;;;;46.95;17.75;;;-3.20;99.90;;;;;;5076719;28;20035;-80
2022/03/05 06:25:54;;;;;;;51.95;18.40;;;-3.20;99.90;;;;;;5078273;28;20364;-78
2022/03/05 06:28:20;;;;;;;48.15;18.88;;;-3.20;99.90;;;;;;5078492;28;20029;-78
2022/03/05 06:30:46;;;;;;;45.25;17.40;;;-3.20;99.90;;;;;;5076597;28;20105;-77
2022/03/05 06:33:14;;;;;;;49.63;18.13;;;-3.30;99.90;;;;;;5076744;28;20118;-79
2022/03/05 06:35:49;;;;;;;49.15;17.92;;;-3.20;99.90;;;;;;5077746;28;20063;-77
2022/03/05 06:38:15;;;;;;;48.75;17.13;;;-3.10;99.90;;;;;;5078204;28;20021;-77
2022/03/05 06:40:41;;;;;;;53.28;18.73;;;-2.90;99.90;;;;;;5076780;28;20123;-76
2022/03/05 06:43:09;;;;;;;49.40;17.70;;;-2.80;99.90;;;;;;5075165;28;20035;-77
2022/03/05 06:45:35;;;;;;;52.63;17.85;;;-2.70;99.90;;;;;;5057603;28;20025;-77
2022/03/05 06:48:01;;;;;;;52.08;19.25;;;-2.60;99.90;;;;;;5058584;28;20139;-76
2022/03/05 06:50:26;;;;;;;45.83;18.25;;;-2.40;99.90;;;;;;5057944;28;20059;-76
2022/03/05 06:52:52;;;;;;;52.47;18.95;;;-2.20;99.90;;;;;;5056214;28;20067;-78
2022/03/05 06:55:21;;;;;;;53.63;19.05;;;-2.00;99.90;;;;;;5057770;28;20394;-79
2022/03/05 06:57:51;;;;;;;50.00;17.08;;;-1.90;99.90;;;;;;5069189;28;20027;-77
2022/03/05 07:00:17;;;;;;;50.92;19.38;;;-1.70;99.90;;;;;;5067181;28;20024;-79
2022/03/05 07:02:43;;;;;;;46.78;18.38;;;-1.50;99.90;;;;;;5061392;28;20100;-77
2022/03/05 07:05:09;;;;;;;47.03;18.00;;;-1.30;99.90;;;;;;5057837;28;20060;-76
2022/03/05 07:07:36;;;;;;;46.00;17.35;;;-1.10;99.90;;;;;;5057592;28;20534;-76
2022/03/05 07:10:05;;;;;;;49.75;17.45;;;-0.90;99.90;;;;;;5056200;28;20025;-75
2022/03/05 07:12:31;;;;;;;51.33;18.08;;;-0.70;99.90;;;;;;5057189;28;20515;-78
2022/03/05 07:15:01;;;;;;;52.95;19.25;;;-0.40;99.90;;;;;;5055257;28;20025;-77
2022/03/05 07:17:29;;;;;;;49.17;18.50;;;-0.20;99.90;;;;;;5056360;28;20120;-77
2022/03/05 07:19:55;;;;;;;45.00;18.63;;;0.00;99.90;;;;;;5056208;28;20029;-79
2022/03/05 07:22:22;;;;;;;43.15;18.45;;;0.10;99.90;;;;;;5056387;28;20025;-77
2022/03/05 07:24:47;;;;;;;53.80;19.67;;;0.40;99.90;;;;;;5056214;28;20032;-78
2022/03/05 07:27:13;;;;;;;48.85;20.50;;;0.60;99.90;;;;;;5055620;28;20037;-77
2022/03/05 07:29:38;;;;;;;46.80;18.88;;;0.70;99.90;;;;;;5057338;28;20096;-76
2022/03/05 07:32:11;;;;;;;50.92;20.52;;;0.90;99.90;;;;;;5056936;28;20037;-79
2022/03/05 07:34:36;;;;;;;46.63;20.08;;;1.00;99.90;;;;;;5057455;28;20033;-79
2022/03/05 07:37:02;;;;;;;45.88;19.88;;;1.10;99.90;;;;;;5055683;28;20448;-76
2022/03/05 07:39:37;;;;;;;50.47;20.05;;;1.40;99.90;;;;;;5056759;28;20104;-76
2022/03/05 07:42:03;;;;;;;48.35;18.98;;;1.60;99.90;;;;;;5056138;28;20043;-75
2022/03/05 07:44:30;;;;;;;49.78;19.83;;;1.80;99.90;;;;;;5070224;28;20025;-78
2022/03/05 07:46:55;;;;;;;46.53;19.50;;;1.90;99.90;;;;;;5076059;28;20495;-79
2022/03/05 07:49:21;;;;;;;48.85;20.13;;;2.20;99.90;;;;;;5075995;28;20040;-79
2022/03/05 07:51:46;;;;;;;42.80;18.55;;;2.40;99.90;;;;;;5075896;28;20089;-78
2022/03/05 07:54:12;;;;;;;43.03;18.55;;;2.70;99.90;;;;;;5075740;28;20033;-78
2022/03/05 07:56:37;;;;;;;48.42;20.60;;;2.90;99.90;;;;;;5076165;28;20112;-79
2022/03/05 07:59:03;;;;;;;42.83;19.20;;;3.00;99.90;;;;;;5075371;28;20357;-78
2022/03/05 08:01:29;;;;;;;44.22;18.67;;;3.20;99.90;;;;;;5075999;28;20047;-79
2022/03/05 08:03:54;;;;;;;44.05;19.00;;;3.40;99.90;;;;;;5076384;28;20029;-78
2022/03/05 08:06:20;;;;;;;43.58;19.05;;;3.60;99.90;;;;;;5075460;28;20025;-76
2022/03/05 08:08:46;;;;;;;42.80;19.63;;;4.10;99.90;;;;;;5075636;28;20056;-78
2022/03/05 08:11:14;;;;;;;45.50;20.67;;;4.20;99.90;;;;;;5075751;28;20375;-78
2022/03/05 08:13:40;;;;;;;47.10;20.05;;;4.20;99.90;;;;;;5077556;28;20060;-79
2022/03/05 08:16:05;;;;;;;42.58;17.92;;;4.30;99.90;;;;;;5077191;28;20035;-77
2022/03/05 08:18:37;;;;;;;38.28;17.88;;;4.30;99.90;;;;;;5084749;28;20464;-77
2022/03/05 08:21:07;;;;;;;42.80;19.15;;;4.50;99.90;;;;;;5092781;28;20112;-76
2022/03/05 08:23:35;;;;;;;43.00;18.70;;;4.60;99.90;;;;;;5092376;28;20051;-77
2022/03/05 08:26:02;;;;;;;42.58;19.05;;;4.80;99.90;;;;;;5092318;28;20043;-77
2022/03/05 08:28:27;;;;;;;43.10;19.48;;;4.90;99.90;;;;;;5092869;28;20076;-77
2022/03/05 08:30:53;;;;;;;41.05;17.58;;;5.10;99.90;;;;;;5092602;28;20028;-77
2022/03/05 08:33:21;;;;;;;38.03;16.65;;;5.20;99.90;;;;;;5091873;28;20025;-75
2022/03/05 08:35:52;;;;;;;37.17;17.23;;;5.40;99.90;;;;;;5092082;28;20016;-75
2022/03/05 08:38:18;;;;;;;39.88;17.90;;;5.70;99.90;;;;;;5092665;28;20123;-76
2022/03/05 08:40:44;;;;;;;39.20;18.25;;;5.90;99.90;;;;;;5095378;28;20086;-76
2022/03/05 08:43:09;;;;;;;39.35;18.52;;;5.80;99.90;;;;;;5091717;28;20021;-77
2022/03/05 08:45:35;;;;;;;40.78;17.98;;;5.70;99.90;;;;;;5074964;28;20025;-76
2022/03/05 08:48:00;;;;;;;43.35;17.77;;;5.80;99.90;;;;;;5064508;28;20032;-76
2022/03/05 08:50:32;;;;;;;39.25;18.35;;;6.00;99.90;;;;;;5056707;28;20017;-76
2022/03/05 08:52:58;;;;;;;38.10;16.70;;;6.00;99.90;;;;;;5054996;28;20101;-77
2022/03/05 08:55:24;;;;;;;30.60;15.65;;;6.30;99.90;;;;;;5054315;28;20049;-79
2022/03/05 08:57:49;;;;;;;29.60;14.27;;;6.80;99.90;;;;;;5055680;28;20021;-78
2022/03/05 09:00:16;;;;;;;29.65;13.85;;;7.10;99.90;;;;;;5055638;28;20052;-78
2022/03/05 09:02:47;;;;;;;30.13;13.93;;;7.50;94.60;;;;;;5054794;28;20029;-79
2022/03/05 09:05:14;;;;;;;28.50;14.25;;;7.80;92.50;;;;;;5055676;28;20113;-76
2022/03/05 09:07:41;;;;;;;25.02;13.05;;;8.10;90.10;;;;;;5053731;28;20035;-77
2022/03/05 09:10:08;;;;;;;28.05;15.30;;;8.20;86.40;;;;;;5057552;28;20103;-78
2022/03/05 09:12:40;;;;;;;28.60;14.02;;;8.20;86.70;;;;;;5056053;28;20026;-78
2022/03/05 09:15:06;;;;;;;27.92;14.45;;;8.30;82.70;;;;;;5055759;28;20568;-77
2022/03/05 09:17:32;;;;;;;27.35;13.98;;;8.20;82.10;;;;;;5054471;28;20029;-76
2022/03/05 09:19:58;;;;;;;28.25;14.20;;;8.30;82.30;;;;;;5055977;28;20101;-80
2022/03/05 09:22:26;;;;;;;27.42;13.55;;;8.50;81.80;;;;;;5056348;28;20131;-77
2022/03/05 09:24:53;;;;;;;24.58;12.75;;;8.60;79.80;;;;;;5054844;28;20053;-79
2022/03/05 09:27:19;;;;;;;25.00;12.80;;;8.70;78.50;;;;;;5053090;28;20032;-78
2022/03/05 09:29:45;;;;;;;29.67;14.63;;;8.90;77.80;;;;;;5054135;28;20085;-76
2022/03/05 09:32:10;;;;;;;24.17;13.40;;;8.90;76.00;;;;;;5053453;28;20116;-78
2022/03/05 09:34:36;;;;;;;27.08;13.40;;;9.00;76.20;;;;;;5054798;28;20052;-76
2022/03/05 09:37:02;;;;;;;24.77;13.98;;;9.00;76.10;;;;;;5054021;28;20029;-75
2022/03/05 09:39:28;;;;;;;28.05;14.63;;;9.30;74.10;;;;;;5057892;28;20498;-78
2022/03/05 09:41:55;;;;;;;24.65;13.27;;;9.30;73.00;;;;;;5058025;28;20037;-76
2022/03/05 09:44:20;;;;;;;30.05;13.95;;;9.30;73.30;;;;;;5070429;28;20028;-75
2022/03/05 09:46:47;;;;;;;28.77;13.93;;;9.60;72.60;;;;;;5078567;28;20464;-78
2022/03/05 09:49:13;;;;;;;25.05;12.85;;;9.70;72.10;;;;;;5077696;28;20496;-76
2022/03/05 09:51:39;;;;;;;35.97;14.32;;;9.70;71.50;;;;;;5078331;28;20040;-77
2022/03/05 09:54:07;;;;;;;26.75;13.38;;;9.80;72.00;;;;;;5077124;28;20028;-75
2022/03/05 09:56:33;;;;;;;27.00;12.90;;;9.90;71.10;;;;;;5078173;28;20024;-76
2022/03/05 09:59:01;;;;;;;30.27;14.75;;;10.10;69.80;;;;;;5078372;28;20046;-78
2022/03/05 10:01:28;;;;;;;26.45;14.57;;;10.30;68.10;;;;;;5078055;28;20060;-77
2022/03/05 10:03:55;;;;;;;25.60;13.40;;;10.50;67.80;;;;;;5079541;28;20050;-78
2022/03/05 10:06:23;;;;;;;26.73;13.82;;;10.50;67.30;;;;;;5080821;28;20028;-76
2022/03/05 10:08:52;;;;;;;25.27;13.55;;;10.60;67.10;;;;;;5079726;28;20479;-76
2022/03/05 10:11:18;;;;;;;29.05;14.82;;;10.60;65.50;;;;;;5078222;28;20074;-77
2022/03/05 10:13:50;;;;;;;24.55;13.32;;;10.60;67.70;;;;;;5077825;28;20024;-76
2022/03/05 10:16:30;;;;;;;24.23;13.07;;;10.60;66.70;;;;;;5078531;28;20033;-77
2022/03/05 10:18:57;;;;;;;29.52;14.55;;;10.80;65.30;;;;;;5078628;28;20476;-78
2022/03/05 10:21:31;;;;;;;25.90;13.10;;;11.00;64.20;;;;;;5080474;28;20033;-78
2022/03/05 10:24:10;;;;;;;25.40;13.60;;;11.30;63.60;;;;;;5078159;28;20041;-78
2022/03/05 10:26:56;;;;;;;23.27;12.45;;;10.90;61.20;;;;;;5078734;28;20076;-76
2022/03/05 10:29:39;;;;;;;25.75;13.07;;;10.70;62.40;;;;;;5075767;28;20029;-75
2022/03/05 10:32:10;;;;;;;25.35;13.55;;;10.70;62.00;;;;;;5076423;28;20033;-77
2022/03/05 10:34:48;;;;;;;28.30;14.32;;;10.70;62.40;;;;;;5076202;28;20119;-79
2022/03/05 10:37:14;;;;;;;26.77;13.98;;;10.70;63.20;;;;;;5077577;28;20030;-76
2022/03/05 10:39:42;;;;;;;22.80;12.95;;;10.70;63.70;;;;;;5077796;28;20162;-78
2022/03/05 10:42:26;;;;;;;23.75;12.13;;;10.90;62.60;;;;;;5077768;28;20029;-76
2022/03/05 10:45:09;;;;;;;21.73;12.57;;;11.20;61.50;;;;;;5060129;28;20036;-77
2022/03/05 10:47:43;;;;;;;26.88;13.60;;;11.30;59.60;;;;;;5056853;28;20104;-76
2022/03/05 10:50:27;;;;;;;26.70;12.65;;;11.40;59.40;;;;;;5055274;28;20033;-76
2022/03/05 10:53:04;;;;;;;23.52;11.82;;;11.10;59.30;;;;;;5057253;28;20215;-78
2022/03/05 10:55:37;;;;;;;22.55;12.15;;;11.40;60.30;;;;;;5056129;28;20362;-77
2022/03/05 10:58:17;;;;;;;21.40;12.43;;;11.50;57.40;;;;;;5057492;28;20025;-77
2022/03/05 11:00:46;;;;;;;20.33;11.93;;;11.50;57.70;;;;;;5058852;28;20373;-78
2022/03/05 11:03:12;;;;;;;22.25;11.43;;;11.60;56.90;;;;;;5056719;28;20025;-77
2022/03/05 11:05:38;;;;;;;21.83;12.55;;;11.50;56.40;;;;;;5057106;28;20095;-77
2022/03/05 11:08:10;;;;;;;20.45;12.02;;;11.30;56.50;;;;;;5056100;28;20070;-76
2022/03/05 11:10:36;;;;;;;22.55;12.80;;;11.10;57.90;;;;;;5055488;28;20064;-77
2022/03/05 11:13:03;;;;;;;21.45;11.20;;;11.10;57.70;;;;;;5057114;28;20028;-78
2022/03/05 11:15:32;;;;;;;22.23;11.52;;;11.20;56.70;;;;;;5057150;28;20028;-77
2022/03/05 11:18:02;;;;;;;20.40;10.68;;;11.00;56.90;;;;;;5058081;28;20021;-76
2022/03/05 11:22:56;;;;;;;20.50;12.00;;;11.70;55.90;;;;;;5012552;28;20057;-78
2022/03/05 11:25:25;;;;;;;20.17;10.77;;;11.80;54.40;;;;;;5014874;28;20018;-75
2022/03/05 11:28:01;;;;;;;21.48;11.23;;;11.80;53.80;;;;;;5014422;28;20385;-76
2022/03/05 11:30:27;;;;;;;;;;;11.80;54.50;;;;;;5013954;28;20033;-76
2022/03/05 11:32:53;;;;;;;23.15;12.73;;;11.70;53.20;;;;;;5012330;28;19913;-76
2022/03/05 11:35:25;;;;;;;20.65;11.35;;;11.60;54.80;;;;;;5013768;28;20044;-76
2022/03/05 11:37:52;;;;;;;21.40;11.35;;;11.80;53.90;;;;;;5013638;28;20030;-77
2022/03/05 11:40:40;;;;;;;19.95;11.45;;;11.80;52.10;;;;;;5013955;28;20037;-76
2022/03/05 11:43:26;;;;;;;19.77;10.95;;;11.90;53.00;;;;;;5015660;28;20026;-76
2022/03/05 11:46:04;;;;;;;21.73;11.13;;;12.20;52.70;;;;;;5032153;28;20022;-77
2022/03/05 11:48:36;;;;;;;18.52;10.48;;;12.30;52.20;;;;;;5015335;28;20437;-76
2022/03/05 11:51:10;;;;;;;18.10;10.00;;;12.10;52.00;;;;;;5015208;28;20026;-77
2022/03/05 11:53:36;;;;;;;19.85;10.38;;;12.30;52.20;;;;;;5014855;28;20030;-76
2022/03/05 11:56:34;;;;;;;16.05;10.27;;;12.60;53.30;;;;;;5032754;28;20501;-77
2022/03/05 11:59:28;;;;;;;18.42;9.13;;;12.70;49.60;;;;;;4978414;28;20065;-77
2022/03/05 12:01:55;;;;;;;16.70;10.77;;;12.70;49.50;;;;;;5032521;28;20029;-78
2022/03/05 12:04:22;;;;;;;17.27;9.95;;;12.30;49.50;;;;;;5033945;28;20139;-78
2022/03/05 12:06:51;;;;;;;17.10;9.73;;;12.10;49.60;;;;;;5033530;28;20025;-76
2022/03/05 12:09:35;;;;;;;23.73;10.55;;;12.10;50.40;;;;;;5015542;28;20480;-77
2022/03/05 12:12:02;;;;;;;16.48;9.63;;;12.20;49.00;;;;;;5014486;28;20029;-76
2022/03/05 12:14:59;;;;;;;18.38;9.80;;;12.40;49.90;;;;;;5015528;28;20045;-77
2022/03/05 12:17:26;;;;;;;15.30;8.75;;;12.20;48.90;;;;;;5031288;28;20022;-77
2022/03/05 12:19:54;;;;;;;17.08;9.45;;;12.40;49.60;;;;;;5033023;28;20037;-77
2022/03/05 12:22:20;;;;;;;15.30;9.75;;;12.60;48.10;;;;;;5033220;28;20041;-75
2022/03/05 12:24:45;;;;;;;17.90;10.30;;;12.60;48.90;;;;;;5032814;28;20030;-77
2022/03/05 12:27:14;;;;;;;14.77;9.13;;;12.50;48.80;;;;;;5032399;28;20029;-77
2022/03/05 12:29:53;;;;;;;17.17;10.65;;;12.60;48.90;;;;;;5032353;28;20446;-77
2022/03/05 12:32:20;;;;;;;17.13;9.68;;;12.60;49.40;;;;;;5031285;28;20039;-75
2022/03/05 12:34:46;;;;;;;17.10;10.20;;;12.50;48.80;;;;;;5032903;28;20021;-77
2022/03/05 12:37:12;;;;;;;15.13;9.73;;;12.70;48.80;;;;;;5032461;28;20096;-76
2022/03/05 12:39:46;;;;;;;18.65;11.25;;;12.70;48.50;;;;;;5031959;28;20108;-76
2022/03/05 12:42:12;;;;;;;17.67;11.02;;;12.60;49.10;;;;;;5032454;28;20051;-76
2022/03/05 12:44:41;;;;;;;19.35;12.18;;;12.60;50.00;;;;;;5017349;28;20026;-78
2022/03/05 12:47:07;;;;;;;19.05;10.52;;;12.60;49.30;;;;;;5011704;28;20030;-76
2022/03/05 12:49:32;;;;;;;22.50;11.02;;;12.50;48.90;;;;;;5012536;28;20030;-77
2022/03/05 12:51:59;;;;;;;18.52;10.63;;;12.30;48.80;;;;;;5017751;28;20026;-77
2022/03/05 12:54:25;;;;;;;17.10;9.60;;;12.20;47.90;;;;;;5022397;28;20072;-76
2022/03/05 12:57:00;;;;;;;15.75;9.73;;;12.10;48.70;;;;;;5021734;28;20110;-77
2022/03/05 12:59:25;;;;;;;16.42;9.18;;;11.90;48.00;;;;;;5012875;28;20054;-76
2022/03/05 13:02:02;;;;;;;15.77;8.90;;;12.00;48.60;;;;;;5012435;28;20057;-75
2022/03/05 13:04:27;;;;;;;15.88;9.35;;;12.30;49.10;;;;;;5013044;28;20040;-77
2022/03/05 13:07:00;;;;;;;16.27;9.85;;;12.50;48.10;;;;;;4997198;28;20029;-76
2022/03/05 13:09:28;;;;;;;15.93;9.60;;;12.60;47.50;;;;;;4994483;28;20111;-76
2022/03/05 13:11:54;;;;;;;19.67;10.93;;;12.30;48.40;;;;;;4994329;28;20456;-76
2022/03/05 13:14:20;;;;;;;18.52;10.40;;;12.00;50.60;;;;;;5016282;28;20100;-75
2022/03/05 13:16:55;;;;;;;19.38;10.82;;;11.90;51.70;;;;;;5016822;28;20056;-75
2022/03/05 13:19:23;;;;;;;17.80;10.23;;;12.00;50.10;;;;;;4998924;28;20470;-78
2022/03/05 13:21:53;;;;;;;18.50;10.52;;;12.10;50.00;;;;;;4998726;28;20120;-76
2022/03/05 13:24:20;;;;;;;17.90;10.05;;;12.10;50.50;;;;;;5015850;28;20014;-76
2022/03/05 13:26:58;;;;;;;19.75;11.40;;;12.10;50.60;;;;;;5017284;28;20385;-76
2022/03/05 13:29:26;;;;;;;17.05;9.82;;;12.20;49.30;;;;;;5000447;28;20033;-75
2022/03/05 13:32:00;;;;;;;15.45;9.52;;;12.30;49.50;;;;;;5017025;28;20037;-77
2022/03/05 13:34:28;;;;;;;17.73;9.85;;;12.10;50.30;;;;;;5014483;28;20140;-76
2022/03/05 13:36:56;;;;;;;19.58;10.43;;;12.00;50.40;;;;;;5014359;28;20478;-78
2022/03/05 13:39:28;;;;;;;16.48;10.07;;;11.80;49.60;;;;;;5015562;28;20030;-77
2022/03/05 13:41:58;;;;;;;17.85;10.20;;;11.80;50.90;;;;;;5015921;28;20025;-78
2022/03/05 13:44:37;;;;;;;14.85;9.75;;;12.00;50.00;;;;;;5028845;28;20030;-77
2022/03/05 13:47:07;;;;;;;17.35;9.82;;;12.20;49.30;;;;;;5035844;28;20017;-76
2022/03/05 13:49:41;;;;;;;17.10;10.68;;;12.30;49.60;;;;;;5035354;28;20032;-78
2022/03/05 13:52:17;;;;;;;21.75;11.77;;;12.40;49.40;;;;;;5034632;28;20107;-76
2022/03/05 13:54:50;;;;;;;17.02;10.75;;;12.40;49.30;;;;;;5034874;28;20484;-77
2022/03/05 13:57:31;;;;;;;17.13;10.13;;;12.10;50.00;;;;;;5033157;28;20120;-78
2022/03/05 14:00:12;;;;;;;17.23;10.27;;;11.70;49.90;;;;;;5034816;28;20488;-75
2022/03/05 14:02:38;;;;;;;17.13;10.13;;;11.60;49.80;;;;;;5034204;28;20485;-75
2022/03/05 14:05:18;;;;;;;18.83;10.15;;;11.50;50.70;;;;;;5034472;28;20388;-78
2022/03/05 14:07:57;;;;;;;16.88;9.80;;;11.40;50.80;;;;;;5034247;28;20116;-75
2022/03/05 14:10:24;;;;;;;17.25;10.70;;;11.40;51.30;;;;;;5017158;28;20026;-77
2022/03/05 14:13:02;;;;;;;16.30;9.82;;;11.30;50.20;;;;;;5016595;28;20022;-77